Wes Sellars — WDF9302 — position and weather

sailwx.info

Track history (hours):
 
Tides and Currents Weather Stations Pressure Air Temp Water Temp Dewpoint Dewpoint Depression Visibility Wind Speed Wind Dir Waves Ship Positions

Wes Sellars

Owner: Florida Marine, LLC, Mandeville, LA. More information available from US FCC via Universal Licensing System and Coast Guard Vessel Documentation Center.

Last reported at 2018-Feb-18 07:00 UTC. Time now 2018-Feb-18 07:01 UTC.
Position N 29°45' W 095°12'.

Length 27 m; draft 2.9 m.

Type: Towing. MMSI: 367503760.

Date/timePositionNaut miles runAvg speedWind from/ knotsBaromVisibWave heightAir tempDewpointWater temp
2018-Feb-18 07:00N 29°45' W 095°12'0 0.0
2018-Feb-18 06:22N 29°45' W 095°12'2 0.2
2018-Feb-17 22:03N 29°45' W 095°10'0 8.1
2018-Feb-17 22:00N 29°44' W 095°09'4 7.3
2018-Feb-17 21:30N 29°46' W 095°05'2 3.2
2018-Feb-17 20:48N 29°47' W 095°04'1 2.9
2018-Feb-17 20:30N 29°47' W 095°04'2 3.7
2018-Feb-17 20:00N 29°45' W 095°06'0 0.0
2018-Feb-17 19:19N 29°45' W 095°06'0 0.1
2018-Feb-17 18:58N 29°45' W 095°06'0 0.0
2018-Feb-17 18:30N 29°45' W 095°06'0 0.0
2018-Feb-17 18:00N 29°45' W 095°06'0 0.0
2018-Feb-17 17:30N 29°45' W 095°06'0 0.0
2018-Feb-17 17:00N 29°45' W 095°06'0 0.0
2018-Feb-17 16:25N 29°45' W 095°06'0 0.0
2018-Feb-17 15:53N 29°45' W 095°06'0 0.0
2018-Feb-17 15:10N 29°45' W 095°06'0 0.0
2018-Feb-17 14:54N 29°45' W 095°06'0 0.0
2018-Feb-17 14:25N 29°45' W 095°06'0 0.0
2018-Feb-17 14:00N 29°45' W 095°06'0 0.0
2018-Feb-17 13:16N 29°45' W 095°06'0 0.0
2018-Feb-17 12:58N 29°45' W 095°06'0 0.0
2018-Feb-17 12:28N 29°45' W 095°06'0 0.0
2018-Feb-17 11:59N 29°45' W 095°06'0 0.0
2018-Feb-17 11:27N 29°45' W 095°06'0 0.0
2018-Feb-17 11:00N 29°45' W 095°06'0 0.0
2018-Feb-17 10:30N 29°45' W 095°06'0 0.0
2018-Feb-17 09:59N 29°45' W 095°06'0 0.0
2018-Feb-17 09:28N 29°45' W 095°06'0 0.0
2018-Feb-17 09:00N 29°45' W 095°06'0 0.0
2018-Feb-17 08:30N 29°45' W 095°06'0 0.0
2018-Feb-17 08:00N 29°45' W 095°06'0 0.0
2018-Feb-17 07:30N 29°45' W 095°06'0 0.0
2018-Feb-17 06:59N 29°45' W 095°06'0 0.0
2018-Feb-17 06:29N 29°45' W 095°06'0 0.0
2018-Feb-17 05:59N 29°45' W 095°06'0 0.0
2018-Feb-17 05:30N 29°45' W 095°06'0 0.0
2018-Feb-17 05:00N 29°45' W 095°06'0 0.0
2018-Feb-17 04:28N 29°45' W 095°06'0 0.0
2018-Feb-17 03:55N 29°45' W 095°06'0 0.1
2018-Feb-17 00:29N 29°46' W 095°06'0 0.5
2018-Feb-16 23:57N 29°46' W 095°07'0 0.2
2018-Feb-16 23:10N 29°46' W 095°07'0 0.3
2018-Feb-16 22:49N 29°46' W 095°07'1 2.4
2018-Feb-16 22:28N 29°46' W 095°06'0 0.0
2018-Feb-16 18:59N 29°46' W 095°05'1 1.5
2018-Feb-16 18:30N 29°46' W 095°06'0 0.7
2018-Feb-16 18:00N 29°46' W 095°07'0 0.0
2018-Feb-16 17:30N 29°46' W 095°07'0 0.0
2018-Feb-16 17:00N 29°46' W 095°07'0 0.0
2018-Feb-16 16:25N 29°46' W 095°07'0 0.0
2018-Feb-16 15:49N 29°46' W 095°07'0 0.0
2018-Feb-16 15:18N 29°46' W 095°07'0 0.0
2018-Feb-16 14:56N 29°46' W 095°07'1 1.9
2018-Feb-16 14:30N 29°45' W 095°06'1 0.4
2018-Feb-16 12:25N 29°46' W 095°06'0 0.0
2018-Feb-16 11:48N 29°46' W 095°06'0 0.4
2018-Feb-16 11:12N 29°46' W 095°06'0 0.0
2018-Feb-16 10:55N 29°46' W 095°06'0 0.0
2018-Feb-16 10:30N 29°46' W 095°06'0 0.0
2018-Feb-16 09:56N 29°46' W 095°06'0 0.0
2018-Feb-16 09:27N 29°46' W 095°06'0 0.0
2018-Feb-16 08:56N 29°46' W 095°06'0 0.0
2018-Feb-16 08:27N 29°46' W 095°06'0 0.0
2018-Feb-16 07:59N 29°46' W 095°06'0 0.0
2018-Feb-16 07:30N 29°46' W 095°06'0 0.0
2018-Feb-16 07:00N 29°46' W 095°06'0 0.0
2018-Feb-16 06:30N 29°46' W 095°06'0 0.0
2018-Feb-16 05:59N 29°46' W 095°06'0 0.0
2018-Feb-16 05:28N 29°46' W 095°06'0 0.0
2018-Feb-16 04:59N 29°46' W 095°06'0 0.0
2018-Feb-16 04:30N 29°46' W 095°06'0 0.0
2018-Feb-16 03:58N 29°46' W 095°06'0 0.0
2018-Feb-16 03:29N 29°46' W 095°06'0 0.0
2018-Feb-16 03:00N 29°46' W 095°06'0 0.0
2018-Feb-16 02:30N 29°46' W 095°06'0 0.0
2018-Feb-16 01:56N 29°46' W 095°06'0 0.0
2018-Feb-16 01:28N 29°46' W 095°06'3 5.4
2018-Feb-16 00:58N 29°45' W 095°04'1 1.7
2018-Feb-16 00:30N 29°44' W 095°03'1 1.2
2018-Feb-15 23:54N 29°44' W 095°04'2 4.7
2018-Feb-15 23:25N 29°46' W 095°06'1 0.1
2018-Feb-15 17:06N 29°46' W 095°07'0 0.0
2018-Feb-15 10:35N 29°46' W 095°06'1 6.0
2018-Feb-15 10:28N 29°45' W 095°06'1 1.1
2018-Feb-15 09:56N 29°46' W 095°06'1 1.2
2018-Feb-15 09:30N 29°46' W 095°06'0 0.2
2018-Feb-15 08:59N 29°46' W 095°07'0 0.0
2018-Feb-15 08:30N 29°46' W 095°07'0 0.0
2018-Feb-15 07:55N 29°46' W 095°07'0 0.0
2018-Feb-15 07:30N 29°46' W 095°07'0 0.0
2018-Feb-15 06:57N 29°46' W 095°07'0 0.0
2018-Feb-15 06:30N 29°46' W 095°07'0 0.0
2018-Feb-15 06:00N 29°46' W 095°07'0 0.0
2018-Feb-15 05:28N 29°46' W 095°07'0 0.0
2018-Feb-15 05:00N 29°46' W 095°07'0 0.0
2018-Feb-15 04:30N 29°46' W 095°07'0 0.0
2018-Feb-15 04:00N 29°46' W 095°07'0 0.0
2018-Feb-15 03:30N 29°46' W 095°07'0 0.0
2018-Feb-15 02:58N 29°46' W 095°07'0 0.3
2018-Feb-15 01:20N 29°46' W 095°06'1 3.9
2018-Feb-15 01:00N 29°46' W 095°05'4 6.1
2018-Feb-15 00:19N 29°43' W 095°01'2 7.6
2018-Feb-15 00:00N 29°41' W 094°59'4 8.6
2018-Feb-14 23:30N 29°37' W 094°57'4 8.0
2018-Feb-14 23:00N 29°34' W 094°55'4 8.8
2018-Feb-14 22:30N 29°30' W 094°52'5 9.0
2018-Feb-14 21:59N 29°26' W 094°50'4 9.4
2018-Feb-14 21:30N 29°22' W 094°48'1 2.2
2018-Feb-14 20:55N 29°21' W 094°49'0 0.0
2018-Feb-14 20:26N 29°21' W 094°49'0 0.0
2018-Feb-14 19:59N 29°21' W 094°49'0 0.0
2018-Feb-14 19:29N 29°21' W 094°49'0 0.0
2018-Feb-14 18:53N 29°21' W 094°49'0 0.0
2018-Feb-14 18:28N 29°21' W 094°49'0 0.0
2018-Feb-14 18:00N 29°21' W 094°49'0 0.0
2018-Feb-14 17:30N 29°21' W 094°49'0 0.0
2018-Feb-14 16:54N 29°21' W 094°49'0 0.1
2018-Feb-14 16:28N 29°21' W 094°49'0 0.0
2018-Feb-14 16:00N 29°21' W 094°49'0 0.0
2018-Feb-14 15:30N 29°21' W 094°49'0 0.0
2018-Feb-14 15:00N 29°21' W 094°49'0 0.0
2018-Feb-14 14:30N 29°21' W 094°49'0 0.0
2018-Feb-14 13:56N 29°21' W 094°49'0 0.0
2018-Feb-14 13:29N 29°21' W 094°49'0 0.0
2018-Feb-14 12:57N 29°21' W 094°49'0 0.0
2018-Feb-14 12:27N 29°21' W 094°49'0 0.0
2018-Feb-14 12:00N 29°21' W 094°49'0 0.0
2018-Feb-14 11:30N 29°21' W 094°49'0 0.0
2018-Feb-14 10:58N 29°21' W 094°49'0 0.0
2018-Feb-14 09:58N 29°21' W 094°49'0 0.0
2018-Feb-14 04:21N 29°21' W 094°49'  
2018-Feb-08 19:00N 27°50' W 097°06'4 1.8
2018-Feb-08 17:00N 27°52' W 097°03'0 0.0
2018-Feb-08 16:30N 27°52' W 097°03'0 0.0
2018-Feb-08 16:00N 27°52' W 097°03'0 0.0
2018-Feb-08 15:30N 27°52' W 097°03'0 0.0
2018-Feb-08 15:00N 27°52' W 097°03'0 0.0
2018-Feb-08 14:30N 27°52' W 097°03'0 0.0
2018-Feb-08 14:00N 27°52' W 097°03'0 0.0
2018-Feb-08 12:00N 27°52' W 097°03'0 0.0
2018-Feb-08 11:30N 27°52' W 097°03'0 0.0
2018-Feb-08 11:00N 27°52' W 097°03'0 0.0
2018-Feb-08 10:00N 27°52' W 097°03'0 0.0
2018-Feb-08 08:30N 27°52' W 097°03'0 0.0
2018-Feb-08 08:00N 27°52' W 097°03'0 0.0
2018-Feb-08 07:30N 27°52' W 097°03'0 0.0
2018-Feb-08 07:00N 27°52' W 097°03'0 0.0
2018-Feb-08 06:30N 27°52' W 097°03'  
Track history (hours):
 
Tides and Currents Weather Stations Pressure Air Temp Water Temp Dewpoint Dewpoint Depression Visibility Wind Speed Wind Dir Waves Ship Positions

Wes Sellars

Owner: Florida Marine, LLC, Mandeville, LA. More information available from US FCC via Universal Licensing System and Coast Guard Vessel Documentation Center.

Last reported at 2018-Feb-18 07:00 UTC. Time now 2018-Feb-18 07:01 UTC.
Position N 29°45' W 095°12'.

Length 27 m; draft 2.9 m.

Type: Towing. MMSI: 367503760.

Date/timePositionNaut miles runAvg speedWind from/ knotsBaromVisibWave heightAir tempDewpointWater temp
2018-Feb-18 07:00N 29°45' W 095°12'0 0.0
2018-Feb-18 06:22N 29°45' W 095°12'2 0.2
2018-Feb-17 22:03N 29°45' W 095°10'0 8.1
2018-Feb-17 22:00N 29°44' W 095°09'4 7.3
2018-Feb-17 21:30N 29°46' W 095°05'2 3.2
2018-Feb-17 20:48N 29°47' W 095°04'1 2.9
2018-Feb-17 20:30N 29°47' W 095°04'2 3.7
2018-Feb-17 20:00N 29°45' W 095°06'0 0.0
2018-Feb-17 19:19N 29°45' W 095°06'0 0.1
2018-Feb-17 18:58N 29°45' W 095°06'0 0.0
2018-Feb-17 18:30N 29°45' W 095°06'0 0.0
2018-Feb-17 18:00N 29°45' W 095°06'0 0.0
2018-Feb-17 17:30N 29°45' W 095°06'0 0.0
2018-Feb-17 17:00N 29°45' W 095°06'0 0.0
2018-Feb-17 16:25N 29°45' W 095°06'0 0.0
2018-Feb-17 15:53N 29°45' W 095°06'0 0.0
2018-Feb-17 15:10N 29°45' W 095°06'0 0.0
2018-Feb-17 14:54N 29°45' W 095°06'0 0.0
2018-Feb-17 14:25N 29°45' W 095°06'0 0.0
2018-Feb-17 14:00N 29°45' W 095°06'0 0.0
2018-Feb-17 13:16N 29°45' W 095°06'0 0.0
2018-Feb-17 12:58N 29°45' W 095°06'0 0.0
2018-Feb-17 12:28N 29°45' W 095°06'0 0.0
2018-Feb-17 11:59N 29°45' W 095°06'0 0.0
2018-Feb-17 11:27N 29°45' W 095°06'0 0.0
2018-Feb-17 11:00N 29°45' W 095°06'0 0.0
2018-Feb-17 10:30N 29°45' W 095°06'0 0.0
2018-Feb-17 09:59N 29°45' W 095°06'0 0.0
2018-Feb-17 09:28N 29°45' W 095°06'0 0.0
2018-Feb-17 09:00N 29°45' W 095°06'0 0.0
2018-Feb-17 08:30N 29°45' W 095°06'0 0.0
2018-Feb-17 08:00N 29°45' W 095°06'0 0.0
2018-Feb-17 07:30N 29°45' W 095°06'0 0.0
2018-Feb-17 06:59N 29°45' W 095°06'0 0.0
2018-Feb-17 06:29N 29°45' W 095°06'0 0.0
2018-Feb-17 05:59N 29°45' W 095°06'0 0.0
2018-Feb-17 05:30N 29°45' W 095°06'0 0.0
2018-Feb-17 05:00N 29°45' W 095°06'0 0.0
2018-Feb-17 04:28N 29°45' W 095°06'0 0.0
2018-Feb-17 03:55N 29°45' W 095°06'0 0.1
2018-Feb-17 00:29N 29°46' W 095°06'0 0.5
2018-Feb-16 23:57N 29°46' W 095°07'0 0.2
2018-Feb-16 23:10N 29°46' W 095°07'0 0.3
2018-Feb-16 22:49N 29°46' W 095°07'1 2.4
2018-Feb-16 22:28N 29°46' W 095°06'0 0.0
2018-Feb-16 18:59N 29°46' W 095°05'1 1.5
2018-Feb-16 18:30N 29°46' W 095°06'0 0.7
2018-Feb-16 18:00N 29°46' W 095°07'0 0.0
2018-Feb-16 17:30N 29°46' W 095°07'0 0.0
2018-Feb-16 17:00N 29°46' W 095°07'0 0.0
2018-Feb-16 16:25N 29°46' W 095°07'0 0.0
2018-Feb-16 15:49N 29°46' W 095°07'0 0.0
2018-Feb-16 15:18N 29°46' W 095°07'0 0.0
2018-Feb-16 14:56N 29°46' W 095°07'1 1.9
2018-Feb-16 14:30N 29°45' W 095°06'1 0.4
2018-Feb-16 12:25N 29°46' W 095°06'0 0.0
2018-Feb-16 11:48N 29°46' W 095°06'0 0.4
2018-Feb-16 11:12N 29°46' W 095°06'0 0.0
2018-Feb-16 10:55N 29°46' W 095°06'0 0.0
2018-Feb-16 10:30N 29°46' W 095°06'0 0.0
2018-Feb-16 09:56N 29°46' W 095°06'0 0.0
2018-Feb-16 09:27N 29°46' W 095°06'0 0.0
2018-Feb-16 08:56N 29°46' W 095°06'0 0.0
2018-Feb-16 08:27N 29°46' W 095°06'0 0.0
2018-Feb-16 07:59N 29°46' W 095°06'0 0.0
2018-Feb-16 07:30N 29°46' W 095°06'0 0.0
2018-Feb-16 07:00N 29°46' W 095°06'0 0.0
2018-Feb-16 06:30N 29°46' W 095°06'0 0.0
2018-Feb-16 05:59N 29°46' W 095°06'0 0.0
2018-Feb-16 05:28N 29°46' W 095°06'0 0.0
2018-Feb-16 04:59N 29°46' W 095°06'0 0.0
2018-Feb-16 04:30N 29°46' W 095°06'0 0.0
2018-Feb-16 03:58N 29°46' W 095°06'0 0.0
2018-Feb-16 03:29N 29°46' W 095°06'0 0.0
2018-Feb-16 03:00N 29°46' W 095°06'0 0.0
2018-Feb-16 02:30N 29°46' W 095°06'0 0.0
2018-Feb-16 01:56N 29°46' W 095°06'0 0.0
2018-Feb-16 01:28N 29°46' W 095°06'3 5.4
2018-Feb-16 00:58N 29°45' W 095°04'1 1.7
2018-Feb-16 00:30N 29°44' W 095°03'1 1.2
2018-Feb-15 23:54N 29°44' W 095°04'2 4.7
2018-Feb-15 23:25N 29°46' W 095°06'1 0.1
2018-Feb-15 17:06N 29°46' W 095°07'0 0.0
2018-Feb-15 10:35N 29°46' W 095°06'1 6.0
2018-Feb-15 10:28N 29°45' W 095°06'1 1.1
2018-Feb-15 09:56N 29°46' W 095°06'1 1.2
2018-Feb-15 09:30N 29°46' W 095°06'0 0.2
2018-Feb-15 08:59N 29°46' W 095°07'0 0.0
2018-Feb-15 08:30N 29°46' W 095°07'0 0.0
2018-Feb-15 07:55N 29°46' W 095°07'0 0.0
2018-Feb-15 07:30N 29°46' W 095°07'0 0.0
2018-Feb-15 06:57N 29°46' W 095°07'0 0.0
2018-Feb-15 06:30N 29°46' W 095°07'0 0.0
2018-Feb-15 06:00N 29°46' W 095°07'0 0.0
2018-Feb-15 05:28N 29°46' W 095°07'0 0.0
2018-Feb-15 05:00N 29°46' W 095°07'0 0.0
2018-Feb-15 04:30N 29°46' W 095°07'0 0.0
2018-Feb-15 04:00N 29°46' W 095°07'0 0.0
2018-Feb-15 03:30N 29°46' W 095°07'0 0.0
2018-Feb-15 02:58N 29°46' W 095°07'0 0.3
2018-Feb-15 01:20N 29°46' W 095°06'1 3.9
2018-Feb-15 01:00N 29°46' W 095°05'4 6.1
2018-Feb-15 00:19N 29°43' W 095°01'2 7.6
2018-Feb-15 00:00N 29°41' W 094°59'4 8.6
2018-Feb-14 23:30N 29°37' W 094°57'4 8.0
2018-Feb-14 23:00N 29°34' W 094°55'4 8.8
2018-Feb-14 22:30N 29°30' W 094°52'5 9.0
2018-Feb-14 21:59N 29°26' W 094°50'4 9.4
2018-Feb-14 21:30N 29°22' W 094°48'1 2.2
2018-Feb-14 20:55N 29°21' W 094°49'0 0.0
2018-Feb-14 20:26N 29°21' W 094°49'0 0.0
2018-Feb-14 19:59N 29°21' W 094°49'0 0.0
2018-Feb-14 19:29N 29°21' W 094°49'0 0.0
2018-Feb-14 18:53N 29°21' W 094°49'0 0.0
2018-Feb-14 18:28N 29°21' W 094°49'0 0.0
2018-Feb-14 18:00N 29°21' W 094°49'0 0.0
2018-Feb-14 17:30N 29°21' W 094°49'0 0.0
2018-Feb-14 16:54N 29°21' W 094°49'0 0.1
2018-Feb-14 16:28N 29°21' W 094°49'0 0.0
2018-Feb-14 16:00N 29°21' W 094°49'0 0.0
2018-Feb-14 15:30N 29°21' W 094°49'0 0.0
2018-Feb-14 15:00N 29°21' W 094°49'0 0.0
2018-Feb-14 14:30N 29°21' W 094°49'0 0.0
2018-Feb-14 13:56N 29°21' W 094°49'0 0.0
2018-Feb-14 13:29N 29°21' W 094°49'0 0.0
2018-Feb-14 12:57N 29°21' W 094°49'0 0.0
2018-Feb-14 12:27N 29°21' W 094°49'0 0.0
2018-Feb-14 12:00N 29°21' W 094°49'0 0.0
2018-Feb-14 11:30N 29°21' W 094°49'0 0.0
2018-Feb-14 10:58N 29°21' W 094°49'0 0.0
2018-Feb-14 09:58N 29°21' W 094°49'0 0.0
2018-Feb-14 04:21N 29°21' W 094°49'  
2018-Feb-08 19:00N 27°50' W 097°06'4 1.8
2018-Feb-08 17:00N 27°52' W 097°03'0 0.0
2018-Feb-08 16:30N 27°52' W 097°03'0 0.0
2018-Feb-08 16:00N 27°52' W 097°03'0 0.0
2018-Feb-08 15:30N 27°52' W 097°03'0 0.0
2018-Feb-08 15:00N 27°52' W 097°03'0 0.0
2018-Feb-08 14:30N 27°52' W 097°03'0 0.0
2018-Feb-08 14:00N 27°52' W 097°03'0 0.0
2018-Feb-08 12:00N 27°52' W 097°03'0 0.0
2018-Feb-08 11:30N 27°52' W 097°03'0 0.0
2018-Feb-08 11:00N 27°52' W 097°03'0 0.0
2018-Feb-08 10:00N 27°52' W 097°03'0 0.0
2018-Feb-08 08:30N 27°52' W 097°03'0 0.0
2018-Feb-08 08:00N 27°52' W 097°03'0 0.0
2018-Feb-08 07:30N 27°52' W 097°03'0 0.0
2018-Feb-08 07:00N 27°52' W 097°03'0 0.0
2018-Feb-08 06:30N 27°52' W 097°03'  

Dump ship's entire track history